createdAt,value
2023-04-18T00:01:40.457Z,41.51
2023-04-18T00:04:08.767Z,41.41
2023-04-18T00:06:35.772Z,41.36
2023-04-18T00:09:02.715Z,41.53
2023-04-18T00:11:29.618Z,41.25
2023-04-18T00:13:58.251Z,41.75
2023-04-18T00:16:25.196Z,41.57
2023-04-18T00:18:52.010Z,41.77
2023-04-18T00:21:18.838Z,41.80
2023-04-18T00:23:45.697Z,41.83
2023-04-18T00:26:12.813Z,41.94
2023-04-18T00:28:39.596Z,41.80
2023-04-18T00:31:07.871Z,41.89
2023-04-18T00:33:34.815Z,41.69
2023-04-18T00:36:01.607Z,41.38
2023-04-18T00:38:28.436Z,41.61
2023-04-18T00:40:55.263Z,41.45
2023-04-18T00:43:23.083Z,41.53
2023-04-18T00:45:50.156Z,41.35
2023-04-18T00:48:18.358Z,41.44
2023-04-18T00:50:45.301Z,41.53
2023-04-18T00:53:13.229Z,41.48
2023-04-18T00:55:40.190Z,41.43
2023-04-18T00:58:07.054Z,41.52
2023-04-18T01:03:26.968Z,41.47
2023-04-18T01:05:54.111Z,41.66
2023-04-18T01:08:21.229Z,41.70
2023-04-18T01:10:48.833Z,41.55
2023-04-18T01:13:16.327Z,41.71
2023-04-18T01:15:43.712Z,41.76
2023-04-18T01:18:11.529Z,41.67
2023-04-18T01:20:41.549Z,41.73
2023-04-18T01:23:08.421Z,41.44
2023-04-18T01:25:36.602Z,41.54
2023-04-18T01:28:03.566Z,41.29
2023-04-18T01:30:30.486Z,41.42
2023-04-18T01:32:57.363Z,41.22
2023-04-18T01:35:24.220Z,41.48
2023-04-18T01:37:51.064Z,41.22
2023-04-18T01:40:18.042Z,41.51
2023-04-18T01:42:46.206Z,41.41
2023-04-18T01:45:13.125Z,41.38
2023-04-18T01:47:39.964Z,41.56
2023-04-18T01:50:07.320Z,41.53
2023-04-18T01:52:34.127Z,41.35
2023-04-18T01:55:01.138Z,41.46
2023-04-18T01:57:28.179Z,41.68
2023-04-18T01:59:56.633Z,41.53
2023-04-18T02:02:23.731Z,41.68
2023-04-18T02:04:50.645Z,41.51
2023-04-18T02:07:17.432Z,41.52
2023-04-18T02:09:44.533Z,41.42
2023-04-18T02:12:11.458Z,41.86
2023-04-18T02:14:38.392Z,41.41
2023-04-18T02:17:06.785Z,41.56
2023-04-18T02:19:33.594Z,41.56
2023-04-18T02:22:00.385Z,41.22
2023-04-18T02:24:27.204Z,41.40
2023-04-18T02:26:54.027Z,41.22
2023-04-18T02:29:20.837Z,41.26
2023-04-18T02:31:47.722Z,41.26
2023-04-18T02:34:16.104Z,41.42
2023-04-18T02:36:42.983Z,41.35
2023-04-18T02:39:09.811Z,41.54
2023-04-18T02:41:36.618Z,41.45
2023-04-18T02:44:03.427Z,41.46
2023-04-18T02:46:30.283Z,41.49
2023-04-18T02:48:57.117Z,41.50
2023-04-18T02:51:25.316Z,41.54
2023-04-18T02:53:52.312Z,41.50
2023-04-18T02:56:19.117Z,41.57
2023-04-18T02:58:45.915Z,41.53
2023-04-18T03:01:12.854Z,41.13
2023-04-18T03:03:39.696Z,40.90
2023-04-18T03:06:06.547Z,40.28
2023-04-18T03:08:34.830Z,40.22
2023-04-18T03:11:01.627Z,39.92
2023-04-18T03:13:28.444Z,40.23
2023-04-18T03:15:55.708Z,40.20
2023-04-18T03:18:22.503Z,39.85
2023-04-18T03:20:49.318Z,40.11
2023-04-18T03:23:16.179Z,40.23
2023-04-18T03:25:44.351Z,40.15
2023-04-18T03:28:11.173Z,39.96
2023-04-18T03:30:38.429Z,40.15
2023-04-18T03:33:05.233Z,40.28
2023-04-18T03:35:32.036Z,40.79
2023-04-18T03:37:58.887Z,40.82
2023-04-18T03:40:25.703Z,41.11
2023-04-18T03:42:53.860Z,40.93
2023-04-18T03:45:20.684Z,40.99
2023-04-18T03:47:47.520Z,40.98
2023-04-18T03:50:14.337Z,40.88
2023-04-18T03:52:41.180Z,40.72
2023-04-18T03:55:08.500Z,40.96
2023-04-18T03:57:35.296Z,40.94
2023-04-18T04:00:03.808Z,40.94
2023-04-18T04:02:30.741Z,41.14
2023-04-18T04:04:57.701Z,41.08
2023-04-18T04:07:24.667Z,41.08
2023-04-18T04:09:51.473Z,41.07
2023-04-18T04:12:18.268Z,40.99
2023-04-18T04:14:45.139Z,41.00
2023-04-18T04:17:13.433Z,40.98
2023-04-18T04:19:40.244Z,41.07
2023-04-18T04:22:07.129Z,40.98
2023-04-18T04:24:33.930Z,41.20
2023-04-18T04:27:01.207Z,41.60
2023-04-18T04:29:28.276Z,41.63
2023-04-18T04:31:55.278Z,41.51
2023-04-18T04:34:23.911Z,42.78
2023-04-18T04:36:50.715Z,42.40
2023-04-18T04:39:17.506Z,42.04
2023-04-18T04:41:44.310Z,41.00
2023-04-18T04:44:11.154Z,40.65
2023-04-18T04:46:38.028Z,39.86
2023-04-18T04:49:04.928Z,39.80
2023-04-18T04:51:33.122Z,40.01
2023-04-18T04:53:59.903Z,39.79
2023-04-18T04:56:26.704Z,46.83
2023-04-18T04:58:53.641Z,43.67
2023-04-18T05:01:20.488Z,42.32
2023-04-18T05:03:47.457Z,42.77
2023-04-18T05:06:14.497Z,44.54
2023-04-18T05:08:42.662Z,45.09
2023-04-18T05:11:09.452Z,43.31
2023-04-18T05:13:36.297Z,43.54
2023-04-18T05:16:03.354Z,43.69
2023-04-18T05:18:30.178Z,44.22
2023-04-18T05:20:57.203Z,43.52
2023-04-18T05:23:24.266Z,44.87
2023-04-18T05:25:52.456Z,43.99
2023-04-18T05:28:19.353Z,43.86
2023-04-18T05:30:46.211Z,43.52
2023-04-18T05:33:13.037Z,43.36
2023-04-18T05:35:39.893Z,43.44
2023-04-18T05:38:06.702Z,43.38
2023-04-18T05:40:33.587Z,43.27
2023-04-18T05:43:01.774Z,42.83
2023-04-18T05:45:28.591Z,42.89
2023-04-18T05:47:55.454Z,42.92
2023-04-18T05:50:22.346Z,42.48
2023-04-18T05:52:49.133Z,42.41
2023-04-18T05:55:15.998Z,42.79
2023-04-18T05:57:42.832Z,42.71
2023-04-18T06:00:11.880Z,42.44
2023-04-18T06:02:38.781Z,42.29
2023-04-18T06:05:06.428Z,42.27
2023-04-18T06:07:33.483Z,42.41
2023-04-18T06:10:00.293Z,42.00
2023-04-18T06:12:27.130Z,42.13
2023-04-18T06:14:53.929Z,41.91
2023-04-18T06:17:22.563Z,41.96
2023-04-18T06:19:49.429Z,41.77
2023-04-18T06:22:16.262Z,41.84
2023-04-18T06:24:43.084Z,41.65
2023-04-18T06:27:17.709Z,41.58
2023-04-18T06:29:55.042Z,41.74
2023-04-18T06:32:23.399Z,41.60
2023-04-18T06:34:50.231Z,41.70
2023-04-18T06:37:17.464Z,41.69
2023-04-18T06:39:44.356Z,41.75
2023-04-18T06:42:11.176Z,41.51
2023-04-18T06:44:37.967Z,41.60
2023-04-18T06:47:04.835Z,41.82
2023-04-18T06:49:33.027Z,41.75
2023-04-18T06:51:59.830Z,41.70
2023-04-18T06:54:26.750Z,41.77
2023-04-18T06:56:53.622Z,41.51
2023-04-18T06:59:20.432Z,41.52
2023-04-18T07:01:47.406Z,41.31
2023-04-18T07:04:14.878Z,41.38
2023-04-18T07:06:43.639Z,41.31
2023-04-18T07:09:10.506Z,41.20
2023-04-18T07:11:37.362Z,41.15
2023-04-18T07:14:04.195Z,41.29
2023-04-18T07:16:31.089Z,41.17
2023-04-18T07:18:57.913Z,41.21
2023-04-18T07:21:24.775Z,41.26
2023-04-18T07:23:52.961Z,41.29
2023-04-18T07:26:19.768Z,41.23
2023-04-18T07:28:46.584Z,41.35
2023-04-18T07:31:13.500Z,41.13
2023-04-18T07:33:40.325Z,41.28
2023-04-18T07:36:07.528Z,41.25
2023-04-18T07:38:34.547Z,41.37
2023-04-18T07:41:03.090Z,41.32
2023-04-18T07:43:29.915Z,41.19
2023-04-18T07:45:56.830Z,41.24
2023-04-18T07:48:23.797Z,41.22
2023-04-18T07:50:50.685Z,41.04
2023-04-18T07:53:17.547Z,41.00
2023-04-18T07:55:44.449Z,41.01
2023-04-18T07:58:12.640Z,40.70
2023-04-18T08:00:39.704Z,40.90
2023-04-18T08:03:06.899Z,40.77
2023-04-18T08:05:33.903Z,40.81
2023-04-18T08:08:00.841Z,40.77
2023-04-18T08:10:27.813Z,41.06
2023-04-18T08:12:54.729Z,40.67
2023-04-18T08:15:22.933Z,40.86
2023-04-18T08:17:49.751Z,40.82
2023-04-18T08:20:16.563Z,40.94
2023-04-18T08:23:01.349Z,40.88
2023-04-18T08:25:30.173Z,41.08
2023-04-18T08:27:57.061Z,40.83
2023-04-18T08:30:25.314Z,41.07
2023-04-18T08:32:52.226Z,40.84
2023-04-18T08:35:19.306Z,40.96
2023-04-18T08:37:46.133Z,40.68
2023-04-18T08:40:13.062Z,40.67
2023-04-18T08:42:42.177Z,40.72
2023-04-18T08:45:09.304Z,40.58
2023-04-18T08:47:37.582Z,40.62
2023-04-18T08:50:04.739Z,40.42
2023-04-18T08:52:32.041Z,40.67
2023-04-18T08:54:58.841Z,40.59
2023-04-18T08:57:25.672Z,40.63
2023-04-18T08:59:52.827Z,40.54
2023-04-18T09:02:20.104Z,40.70
2023-04-18T09:04:49.415Z,40.64
2023-04-18T09:07:16.862Z,40.63
2023-04-18T09:09:44.797Z,40.70
2023-04-18T09:12:12.865Z,40.67
2023-04-18T09:14:40.116Z,40.81
2023-04-18T09:17:07.082Z,40.79
2023-04-18T09:19:34.139Z,40.75
2023-04-18T09:22:02.626Z,40.67
2023-04-18T09:24:29.462Z,40.74
2023-04-18T09:26:56.903Z,40.48
2023-04-18T09:29:41.000Z,40.54
2023-04-18T09:32:07.861Z,40.30
2023-04-18T09:34:34.693Z,40.43
2023-04-18T09:37:09.888Z,40.43
2023-04-18T09:39:37.087Z,40.39
2023-04-18T09:42:04.082Z,40.31
2023-04-18T09:44:31.116Z,40.55
2023-04-18T09:46:57.925Z,40.32
2023-04-18T09:49:24.867Z,40.44
2023-04-18T09:51:53.253Z,40.29
2023-04-18T09:54:23.324Z,40.34
2023-04-18T09:56:50.964Z,40.23
2023-04-18T09:59:24.598Z,40.45
2023-04-18T10:01:51.574Z,40.44
2023-04-18T10:04:18.716Z,40.46
2023-04-18T10:06:45.807Z,40.52
2023-04-18T10:09:14.409Z,40.64
2023-04-18T10:11:43.139Z,40.60
2023-04-18T10:14:10.881Z,40.43
2023-04-18T10:16:38.449Z,40.13
2023-04-18T10:19:21.381Z,40.16
2023-04-18T10:21:51.706Z,40.27
2023-04-18T10:24:33.393Z,40.14
2023-04-18T10:27:01.569Z,40.14
2023-04-18T10:29:43.306Z,40.00
2023-04-18T10:32:10.120Z,40.15
2023-04-18T10:34:36.985Z,40.17
2023-04-18T10:37:04.707Z,40.16
2023-04-18T10:39:46.683Z,40.05
2023-04-18T10:42:14.984Z,40.18
2023-04-18T10:45:04.338Z,40.33
2023-04-18T10:47:31.507Z,40.25
2023-04-18T10:49:59.141Z,40.28
2023-04-18T10:52:26.754Z,40.43
2023-04-18T10:54:59.132Z,40.26
2023-04-18T10:57:36.956Z,40.52
2023-04-18T11:00:04.347Z,40.37
2023-04-18T11:02:31.490Z,40.28
2023-04-18T11:04:59.142Z,40.07
2023-04-18T11:07:32.574Z,40.16
2023-04-18T11:09:59.713Z,39.94
2023-04-18T11:12:28.774Z,40.02
2023-04-18T11:14:57.016Z,40.00
2023-04-18T11:17:24.519Z,40.01
2023-04-18T11:19:58.936Z,39.90
2023-04-18T11:22:25.894Z,40.09
2023-04-18T11:24:57.120Z,40.06
2023-04-18T11:27:24.865Z,39.91
2023-04-18T11:29:52.498Z,39.88
2023-04-18T11:32:22.064Z,40.04
2023-04-18T11:34:50.878Z,39.94
2023-04-18T11:37:18.524Z,40.20
2023-04-18T11:39:45.531Z,40.26
2023-04-18T11:42:12.397Z,40.34
2023-04-18T11:44:39.252Z,40.41
2023-04-18T11:47:21.541Z,40.24
2023-04-18T11:49:56.965Z,40.18
2023-04-18T11:52:24.592Z,40.25
2023-04-18T11:54:51.569Z,40.08
2023-04-18T11:57:19.924Z,40.05
2023-04-18T11:59:50.856Z,39.88
2023-04-18T12:02:17.881Z,40.05
2023-04-18T12:04:53.462Z,39.88
2023-04-18T12:07:30.453Z,39.80
2023-04-18T12:09:57.722Z,39.95
2023-04-18T12:12:24.650Z,39.93
2023-04-18T12:14:57.509Z,39.62
2023-04-18T12:17:25.387Z,39.86
2023-04-18T12:19:53.658Z,39.72
2023-04-18T12:22:20.546Z,39.85
2023-04-18T12:25:07.163Z,39.91
2023-04-18T12:27:46.821Z,39.91
2023-04-18T12:30:14.144Z,39.98
2023-04-18T12:32:41.032Z,39.73
2023-04-18T12:35:09.593Z,39.95
2023-04-18T12:37:36.393Z,40.02
2023-04-18T12:40:03.390Z,39.81
2023-04-18T12:42:30.229Z,39.76
2023-04-18T12:44:57.065Z,39.60
2023-04-18T12:47:23.989Z,39.68
2023-04-18T12:49:50.860Z,39.41
2023-04-18T12:52:19.009Z,39.55
2023-04-18T12:54:45.800Z,39.49
2023-04-18T12:57:12.784Z,39.51
2023-04-18T12:59:39.812Z,39.54
2023-04-18T13:02:06.680Z,39.82
2023-04-18T13:04:33.903Z,39.78
2023-04-18T13:07:01.088Z,39.53
2023-04-18T13:09:29.287Z,39.74
2023-04-18T13:11:56.112Z,39.55
2023-04-18T13:14:23.044Z,39.61
2023-04-18T13:16:49.906Z,39.67
2023-04-18T13:19:17.065Z,39.80
2023-04-18T13:21:43.875Z,39.76
2023-04-18T13:24:10.927Z,39.66
2023-04-18T13:26:39.128Z,39.81
2023-04-18T13:29:05.940Z,39.73
2023-04-18T13:31:32.839Z,39.61
2023-04-18T13:33:59.707Z,39.27
2023-04-18T13:36:26.965Z,39.24
2023-04-18T13:38:54.124Z,39.17
2023-04-18T13:41:20.947Z,39.43
2023-04-18T13:43:49.126Z,39.27
2023-04-18T13:46:17.181Z,39.28
2023-04-18T13:48:44.222Z,39.39
2023-04-18T13:51:11.028Z,39.36
2023-04-18T13:53:37.839Z,39.25
2023-04-18T13:56:05.021Z,39.14
2023-04-18T13:58:31.877Z,39.35
2023-04-18T14:01:00.137Z,39.46
2023-04-18T14:03:27.266Z,39.36
2023-04-18T14:05:54.293Z,39.45
2023-04-18T14:08:21.101Z,39.74
2023-04-18T14:10:47.938Z,39.63
2023-04-18T14:13:14.751Z,39.63
2023-04-18T14:15:41.548Z,39.75
2023-04-18T14:18:09.809Z,39.48
2023-04-18T14:20:36.637Z,39.72
2023-04-18T14:23:03.510Z,39.64
2023-04-18T14:25:30.452Z,39.52
2023-04-18T14:28:03.997Z,39.38
2023-04-18T14:30:30.822Z,39.49
2023-04-18T14:32:57.674Z,39.46
2023-04-18T14:35:25.903Z,39.59
2023-04-18T14:37:52.761Z,39.56
2023-04-18T14:40:19.779Z,39.54
2023-04-18T14:42:46.596Z,39.35
2023-04-18T14:45:13.623Z,39.45
2023-04-18T14:47:40.478Z,39.62
2023-04-18T14:50:08.496Z,39.63
2023-04-18T14:52:36.812Z,39.63
2023-04-18T14:55:03.857Z,39.78
2023-04-18T14:57:30.674Z,39.86
2023-04-18T14:59:57.519Z,39.55
2023-04-18T15:02:24.557Z,39.64
2023-04-18T15:04:51.488Z,39.11
2023-04-18T15:07:18.491Z,38.59
2023-04-18T15:09:46.661Z,38.60
2023-04-18T15:12:13.546Z,38.77
2023-04-18T15:14:40.382Z,38.94
2023-04-18T15:17:07.180Z,39.05
2023-04-18T15:19:34.036Z,39.00
2023-04-18T15:22:00.874Z,39.18
2023-04-18T15:24:27.679Z,39.17
2023-04-18T15:26:55.904Z,39.16
2023-04-18T15:29:22.741Z,39.31
2023-04-18T15:31:49.938Z,39.41
2023-04-18T15:34:17.021Z,39.12
2023-04-18T15:36:43.956Z,39.43
2023-04-18T15:39:10.757Z,39.36
2023-04-18T15:41:37.569Z,39.37
2023-04-18T15:44:07.814Z,39.70
2023-04-18T15:46:34.955Z,40.10
2023-04-18T15:49:01.857Z,40.02
2023-04-18T15:51:28.786Z,40.12
2023-04-18T15:53:55.746Z,40.06
2023-04-18T15:56:22.569Z,40.25
2023-04-18T15:58:49.477Z,40.00
2023-04-18T16:01:17.774Z,40.05
2023-04-18T16:03:44.659Z,40.09
2023-04-18T16:06:11.538Z,39.98
2023-04-18T16:08:38.350Z,40.27
2023-04-18T16:11:05.272Z,40.37
2023-04-18T16:13:32.126Z,40.18
2023-04-18T16:15:58.969Z,40.27
2023-04-18T16:18:27.171Z,40.44
2023-04-18T16:20:53.992Z,40.35
2023-04-18T16:23:20.784Z,40.36
2023-04-18T16:25:47.628Z,40.23
2023-04-18T16:28:14.488Z,40.33
2023-04-18T16:30:41.292Z,40.35
2023-04-18T16:33:08.181Z,40.28
2023-04-18T16:35:36.418Z,40.45
2023-04-18T16:38:03.279Z,40.23
2023-04-18T16:40:30.142Z,40.50
2023-04-18T16:42:57.027Z,40.30
2023-04-18T16:45:23.858Z,40.46
2023-04-18T16:47:50.739Z,40.30
2023-04-18T16:50:17.766Z,40.46
2023-04-18T16:52:45.968Z,40.30
2023-04-18T16:55:12.773Z,40.20
2023-04-18T16:57:39.612Z,40.46
2023-04-18T17:00:06.895Z,40.27
2023-04-18T17:02:33.831Z,40.40
2023-04-18T17:05:00.957Z,40.25
2023-04-18T17:07:27.889Z,40.24
2023-04-18T17:09:56.116Z,40.32
2023-04-18T17:12:22.967Z,40.40
2023-04-18T17:14:49.815Z,40.86
2023-04-18T17:17:16.625Z,41.66
2023-04-18T17:19:43.538Z,41.68
2023-04-18T17:22:10.355Z,41.46
2023-04-18T17:24:37.217Z,40.93
2023-04-18T17:27:05.437Z,40.91
2023-04-18T17:29:32.271Z,41.11
2023-04-18T17:31:59.110Z,40.85
2023-04-18T17:34:25.998Z,41.14
2023-04-18T17:36:52.799Z,41.01
2023-04-18T17:39:19.616Z,41.10
2023-04-18T17:41:46.461Z,40.89
2023-04-18T17:44:14.634Z,40.75
2023-04-18T17:46:41.502Z,40.71
2023-04-18T17:49:08.378Z,40.63
2023-04-18T17:51:35.180Z,40.73
2023-04-18T17:54:01.993Z,40.79
2023-04-18T17:56:28.872Z,40.88
2023-04-18T17:58:56.660Z,40.55
2023-04-18T18:01:25.065Z,40.84
2023-04-18T18:03:52.126Z,40.89
2023-04-18T18:06:19.035Z,40.70
2023-04-18T18:08:45.825Z,40.87
2023-04-18T18:11:12.663Z,41.02
2023-04-18T18:13:39.514Z,40.77
2023-04-18T18:16:06.667Z,40.99
2023-04-18T18:18:34.857Z,40.99
2023-04-18T18:21:01.672Z,40.93
2023-04-18T18:23:28.758Z,40.93
2023-04-18T18:25:55.649Z,40.80
2023-04-18T18:28:22.512Z,40.57
2023-04-18T18:30:49.411Z,40.52
2023-04-18T18:33:16.316Z,40.77
2023-04-18T18:35:44.483Z,40.71
2023-04-18T18:38:11.358Z,40.56
2023-04-18T18:40:38.223Z,40.43
2023-04-18T18:43:05.032Z,40.79
2023-04-18T18:45:31.836Z,40.67
2023-04-18T18:47:58.747Z,40.62
2023-04-18T18:50:25.594Z,40.59
2023-04-18T18:52:53.823Z,40.55
2023-04-18T18:55:20.752Z,40.53
2023-04-18T18:57:47.558Z,40.50
2023-04-18T19:00:14.610Z,40.68
2023-04-18T19:02:41.633Z,40.95
2023-04-18T19:05:09.086Z,40.64
2023-04-18T19:07:35.915Z,40.95
2023-04-18T19:10:04.519Z,40.82
2023-04-18T19:12:31.328Z,40.85
2023-04-18T19:14:58.162Z,40.76
2023-04-18T19:17:25.117Z,40.78
2023-04-18T19:19:52.146Z,40.03
2023-04-18T19:22:18.969Z,40.25
2023-04-18T19:24:45.829Z,40.51
2023-04-18T19:27:14.270Z,40.60
2023-04-18T19:29:41.102Z,40.61
2023-04-18T19:32:07.967Z,40.64
2023-04-18T19:34:34.754Z,40.82
2023-04-18T19:37:01.640Z,40.93
2023-04-18T19:39:28.863Z,40.79
2023-04-18T19:41:55.689Z,40.57
2023-04-18T19:44:23.970Z,40.65
2023-04-18T19:46:50.779Z,40.69
2023-04-18T19:49:17.636Z,40.96
2023-04-18T19:51:44.522Z,41.32
2023-04-18T19:54:11.366Z,41.34
2023-04-18T19:56:38.257Z,41.38
2023-04-18T19:59:05.219Z,41.25
2023-04-18T20:01:33.455Z,41.46
2023-04-18T20:04:00.846Z,41.15
2023-04-18T20:06:28.093Z,41.27
2023-04-18T20:08:54.971Z,41.18
2023-04-18T20:11:21.954Z,41.38
2023-04-18T20:13:48.801Z,40.88
2023-04-18T20:16:15.675Z,40.56
2023-04-18T20:18:45.515Z,40.74
2023-04-18T20:21:12.314Z,40.76
2023-04-18T20:23:39.150Z,40.58
2023-04-18T20:26:06.294Z,40.67
2023-04-18T20:28:33.096Z,40.71
2023-04-18T20:31:00.095Z,40.75
2023-04-18T20:33:27.623Z,40.52
2023-04-18T20:35:55.892Z,40.55
2023-04-18T20:38:25.353Z,40.67
2023-04-18T20:40:52.693Z,40.78
2023-04-18T20:43:19.502Z,40.51
2023-04-18T20:45:47.873Z,40.57
2023-04-18T20:48:14.692Z,40.40
2023-04-18T20:50:41.502Z,40.58
2023-04-18T20:53:09.874Z,40.42
2023-04-18T20:55:36.665Z,40.56
2023-04-18T20:58:03.518Z,40.37
2023-04-18T21:00:30.368Z,40.49
2023-04-18T21:02:57.233Z,40.25
2023-04-18T21:05:24.111Z,40.37
2023-04-18T21:07:51.174Z,40.51
2023-04-18T21:10:19.525Z,40.43
2023-04-18T21:12:46.332Z,40.38
2023-04-18T21:15:13.167Z,40.70
2023-04-18T21:17:40.013Z,40.75
2023-04-18T21:20:07.757Z,40.85
2023-04-18T21:22:34.634Z,40.70
2023-04-18T21:25:01.486Z,40.71
2023-04-18T21:27:29.767Z,40.78
2023-04-18T21:29:56.590Z,40.78
2023-04-18T21:32:23.545Z,40.82
2023-04-18T21:34:50.398Z,40.81
2023-04-18T21:37:17.420Z,40.91
2023-04-18T21:39:44.354Z,40.92
2023-04-18T21:42:11.194Z,40.86
2023-04-18T21:44:39.429Z,40.67
2023-04-18T21:47:06.489Z,40.37
2023-04-18T21:49:33.337Z,40.78
2023-04-18T21:52:00.480Z,40.48
2023-04-18T21:54:27.334Z,40.74
2023-04-18T21:56:54.174Z,40.77
2023-04-18T21:59:22.953Z,40.90
2023-04-18T22:01:51.148Z,40.97
2023-04-18T22:04:18.176Z,40.71
2023-04-18T22:06:45.242Z,40.91
2023-04-18T22:09:12.201Z,41.01
2023-04-18T22:11:39.017Z,40.96
2023-04-18T22:14:06.089Z,41.00
2023-04-18T22:16:33.075Z,41.13
2023-04-18T22:19:01.264Z,40.93
2023-04-18T22:21:28.124Z,41.11
2023-04-18T22:23:54.930Z,41.09
2023-04-18T22:26:21.722Z,41.05
2023-04-18T22:28:48.546Z,40.97
2023-04-18T22:31:15.413Z,41.18
2023-04-18T22:33:42.253Z,41.08
2023-04-18T22:36:10.484Z,40.98
2023-04-18T22:38:37.285Z,40.81
2023-04-18T22:41:04.460Z,40.83
2023-04-18T22:43:31.305Z,40.83
2023-04-18T22:45:58.154Z,40.93
2023-04-18T22:48:25.058Z,40.97
2023-04-18T22:50:51.967Z,40.88
2023-04-18T22:53:20.147Z,41.09
2023-04-18T22:55:46.964Z,41.05
2023-04-18T22:58:13.864Z,40.97
2023-04-18T23:00:40.733Z,41.01
2023-04-18T23:03:07.797Z,41.10
2023-04-18T23:05:34.749Z,41.08
2023-04-18T23:08:01.774Z,41.21
2023-04-18T23:10:30.002Z,41.27
2023-04-18T23:12:56.855Z,41.13
2023-04-18T23:15:23.747Z,41.24
2023-04-18T23:17:51.624Z,41.07
2023-04-18T23:20:18.812Z,41.36
2023-04-18T23:22:45.621Z,41.13
2023-04-18T23:25:12.503Z,41.06
2023-04-18T23:27:40.720Z,41.05
2023-04-18T23:30:08.096Z,41.10
2023-04-18T23:32:34.923Z,41.02
2023-04-18T23:35:01.768Z,40.88
2023-04-18T23:37:28.577Z,40.91
2023-04-18T23:39:55.380Z,40.85
2023-04-18T23:42:22.227Z,41.17
2023-04-18T23:44:50.419Z,40.96
2023-04-18T23:47:17.416Z,41.20
2023-04-18T23:49:44.339Z,41.18
2023-04-18T23:52:11.176Z,41.31
2023-04-18T23:54:37.978Z,41.13
2023-04-18T23:57:04.870Z,41.18
2023-04-18T23:59:31.668Z,41.37
